sensor_id;sensor_type;location;lat;lon;timestamp;temperature;humidity
11446;DHT22;5779;64.178;15.432;2022-07-01T00:00:23;17.40;99.90
11446;DHT22;5779;64.178;15.432;2022-07-01T00:03:10;17.40;99.90
11446;DHT22;5779;64.178;15.432;2022-07-01T00:05:58;17.30;99.90
11446;DHT22;5779;64.178;15.432;2022-07-01T00:08:45;17.40;99.90
11446;DHT22;5779;64.178;15.432;2022-07-01T00:11:32;17.40;99.90
11446;DHT22;5779;64.178;15.432;2022-07-01T00:14:37;17.40;99.90
11446;DHT22;5779;64.178;15.432;2022-07-01T00:17:23;17.20;99.90
11446;DHT22;5779;64.178;15.432;2022-07-01T00:20:10;17.00;99.90
11446;DHT22;5779;64.178;15.432;2022-07-01T00:22:58;16.90;99.90
11446;DHT22;5779;64.178;15.432;2022-07-01T00:25:45;17.00;99.90
11446;DHT22;5779;64.178;15.432;2022-07-01T00:28:31;17.10;99.90
11446;DHT22;5779;64.178;15.432;2022-07-01T00:31:18;17.10;99.90
11446;DHT22;5779;64.178;15.432;2022-07-01T00:34:04;17.00;99.90
11446;DHT22;5779;64.178;15.432;2022-07-01T00:36:51;17.00;99.90
11446;DHT22;5779;64.178;15.432;2022-07-01T00:39:39;17.20;99.90
11446;DHT22;5779;64.178;15.432;2022-07-01T00:42:26;17.40;99.90
11446;DHT22;5779;64.178;15.432;2022-07-01T00:45:13;17.20;99.90
11446;DHT22;5779;64.178;15.432;2022-07-01T00:48:00;17.10;99.90
11446;DHT22;5779;64.178;15.432;2022-07-01T00:50:47;17.20;99.90
11446;DHT22;5779;64.178;15.432;2022-07-01T00:53:34;17.10;99.90
11446;DHT22;5779;64.178;15.432;2022-07-01T00:56:22;17.10;99.90
11446;DHT22;5779;64.178;15.432;2022-07-01T00:59:08;17.00;99.90
11446;DHT22;5779;64.178;15.432;2022-07-01T01:01:55;17.00;99.90
11446;DHT22;5779;64.178;15.432;2022-07-01T01:04:42;17.00;99.90
11446;DHT22;5779;64.178;15.432;2022-07-01T01:07:29;17.00;99.90
11446;DHT22;5779;64.178;15.432;2022-07-01T01:10:15;16.60;99.90
11446;DHT22;5779;64.178;15.432;2022-07-01T01:13:04;16.40;99.90
11446;DHT22;5779;64.178;15.432;2022-07-01T01:15:51;16.50;99.90
11446;DHT22;5779;64.178;15.432;2022-07-01T01:18:38;16.00;99.90
11446;DHT22;5779;64.178;15.432;2022-07-01T01:21:25;15.50;99.90
11446;DHT22;5779;64.178;15.432;2022-07-01T01:24:13;15.80;99.90
11446;DHT22;5779;64.178;15.432;2022-07-01T01:26:59;16.00;99.90
11446;DHT22;5779;64.178;15.432;2022-07-01T01:29:46;15.90;99.90
11446;DHT22;5779;64.178;15.432;2022-07-01T01:32:33;16.30;99.90
11446;DHT22;5779;64.178;15.432;2022-07-01T01:35:20;16.00;99.90
11446;DHT22;5779;64.178;15.432;2022-07-01T01:38:08;16.20;99.90
11446;DHT22;5779;64.178;15.432;2022-07-01T01:40:55;16.20;99.90
11446;DHT22;5779;64.178;15.432;2022-07-01T01:43:42;16.20;99.90
11446;DHT22;5779;64.178;15.432;2022-07-01T01:46:28;16.10;99.90
11446;DHT22;5779;64.178;15.432;2022-07-01T01:49:15;16.20;99.90
11446;DHT22;5779;64.178;15.432;2022-07-01T01:52:01;16.30;99.90
11446;DHT22;5779;64.178;15.432;2022-07-01T01:54:50;16.40;99.90
11446;DHT22;5779;64.178;15.432;2022-07-01T01:57:36;16.30;99.90
11446;DHT22;5779;64.178;15.432;2022-07-01T02:00:23;16.40;99.90
11446;DHT22;5779;64.178;15.432;2022-07-01T02:03:10;16.30;99.90
11446;DHT22;5779;64.178;15.432;2022-07-01T02:05:56;15.90;99.90
11446;DHT22;5779;64.178;15.432;2022-07-01T02:08:43;16.10;99.90
11446;DHT22;5779;64.178;15.432;2022-07-01T02:11:31;16.20;99.90
11446;DHT22;5779;64.178;15.432;2022-07-01T02:14:18;16.40;99.90
11446;DHT22;5779;64.178;15.432;2022-07-01T02:17:04;16.60;99.90
11446;DHT22;5779;64.178;15.432;2022-07-01T02:19:51;16.70;99.90
11446;DHT22;5779;64.178;15.432;2022-07-01T02:22:38;16.70;99.90
11446;DHT22;5779;64.178;15.432;2022-07-01T02:25:25;16.50;99.90
11446;DHT22;5779;64.178;15.432;2022-07-01T02:28:12;16.70;99.90
11446;DHT22;5779;64.178;15.432;2022-07-01T02:30:59;16.50;99.90
11446;DHT22;5779;64.178;15.432;2022-07-01T02:33:47;16.50;99.90
11446;DHT22;5779;64.178;15.432;2022-07-01T02:36:34;16.50;99.90
11446;DHT22;5779;64.178;15.432;2022-07-01T02:39:20;16.30;99.90
11446;DHT22;5779;64.178;15.432;2022-07-01T02:42:07;16.40;99.90
11446;DHT22;5779;64.178;15.432;2022-07-01T02:45:12;16.40;99.90
11446;DHT22;5779;64.178;15.432;2022-07-01T02:47:59;16.30;99.90
11446;DHT22;5779;64.178;15.432;2022-07-01T02:50:46;16.20;99.90
11446;DHT22;5779;64.178;15.432;2022-07-01T02:53:33;16.30;99.90
11446;DHT22;5779;64.178;15.432;2022-07-01T02:56:19;16.40;99.90
11446;DHT22;5779;64.178;15.432;2022-07-01T02:59:06;16.80;99.90
11446;DHT22;5779;64.178;15.432;2022-07-01T03:01:54;16.80;99.90
11446;DHT22;5779;64.178;15.432;2022-07-01T03:04:41;16.80;99.90
11446;DHT22;5779;64.178;15.432;2022-07-01T03:07:27;17.10;99.90
11446;DHT22;5779;64.178;15.432;2022-07-01T03:10:14;17.20;99.90
11446;DHT22;5779;64.178;15.432;2022-07-01T03:13:01;17.10;99.90
11446;DHT22;5779;64.178;15.432;2022-07-01T03:15:48;17.20;99.90
11446;DHT22;5779;64.178;15.432;2022-07-01T03:18:36;17.20;99.90
11446;DHT22;5779;64.178;15.432;2022-07-01T03:21:31;17.40;99.90
11446;DHT22;5779;64.178;15.432;2022-07-01T03:24:18;17.50;99.90
11446;DHT22;5779;64.178;15.432;2022-07-01T03:27:05;17.70;99.90
11446;DHT22;5779;64.178;15.432;2022-07-01T03:29:51;17.80;99.90
11446;DHT22;5779;64.178;15.432;2022-07-01T03:32:38;18.00;99.90
11446;DHT22;5779;64.178;15.432;2022-07-01T03:35:25;18.10;99.90
11446;DHT22;5779;64.178;15.432;2022-07-01T03:38:27;18.40;99.90
11446;DHT22;5779;64.178;15.432;2022-07-01T03:41:14;18.60;99.90
11446;DHT22;5779;64.178;15.432;2022-07-01T03:44:00;18.70;99.90
11446;DHT22;5779;64.178;15.432;2022-07-01T03:46:47;18.80;99.90
11446;DHT22;5779;64.178;15.432;2022-07-01T03:49:34;18.70;99.90
11446;DHT22;5779;64.178;15.432;2022-07-01T03:52:21;18.80;99.90
11446;DHT22;5779;64.178;15.432;2022-07-01T03:55:10;18.90;99.90
11446;DHT22;5779;64.178;15.432;2022-07-01T03:57:55;18.70;99.90
11446;DHT22;5779;64.178;15.432;2022-07-01T04:00:42;18.80;99.90
11446;DHT22;5779;64.178;15.432;2022-07-01T04:03:29;19.10;99.90
11446;DHT22;5779;64.178;15.432;2022-07-01T04:06:16;19.20;99.90
11446;DHT22;5779;64.178;15.432;2022-07-01T04:09:03;19.30;99.90
11446;DHT22;5779;64.178;15.432;2022-07-01T04:11:51;19.40;99.90
11446;DHT22;5779;64.178;15.432;2022-07-01T04:14:38;19.30;99.90
11446;DHT22;5779;64.178;15.432;2022-07-01T04:17:25;19.30;99.90
11446;DHT22;5779;64.178;15.432;2022-07-01T04:20:11;19.30;99.90
11446;DHT22;5779;64.178;15.432;2022-07-01T04:22:58;19.30;99.90
11446;DHT22;5779;64.178;15.432;2022-07-01T04:25:43;19.30;99.90
11446;DHT22;5779;64.178;15.432;2022-07-01T04:28:31;19.50;99.90
11446;DHT22;5779;64.178;15.432;2022-07-01T04:31:18;19.60;99.90
11446;DHT22;5779;64.178;15.432;2022-07-01T04:34:05;19.50;99.90
11446;DHT22;5779;64.178;15.432;2022-07-01T04:36:53;19.70;99.90
11446;DHT22;5779;64.178;15.432;2022-07-01T04:39:40;20.00;99.90
11446;DHT22;5779;64.178;15.432;2022-07-01T04:42:26;20.00;99.90
11446;DHT22;5779;64.178;15.432;2022-07-01T04:45:15;19.90;99.90
11446;DHT22;5779;64.178;15.432;2022-07-01T04:48:01;19.90;99.90
11446;DHT22;5779;64.178;15.432;2022-07-01T04:50:49;20.00;99.90
11446;DHT22;5779;64.178;15.432;2022-07-01T04:53:36;20.00;99.90
11446;DHT22;5779;64.178;15.432;2022-07-01T04:56:23;20.10;99.90
11446;DHT22;5779;64.178;15.432;2022-07-01T04:59:12;20.10;99.90
11446;DHT22;5779;64.178;15.432;2022-07-01T05:02:00;20.20;99.90
11446;DHT22;5779;64.178;15.432;2022-07-01T05:04:47;20.30;99.90
11446;DHT22;5779;64.178;15.432;2022-07-01T05:07:34;20.40;99.90
11446;DHT22;5779;64.178;15.432;2022-07-01T05:10:20;20.40;99.90
11446;DHT22;5779;64.178;15.432;2022-07-01T05:13:08;20.50;99.90
11446;DHT22;5779;64.178;15.432;2022-07-01T05:15:55;20.80;99.90
11446;DHT22;5779;64.178;15.432;2022-07-01T05:18:43;20.80;99.90
11446;DHT22;5779;64.178;15.432;2022-07-01T05:21:48;20.80;99.90
11446;DHT22;5779;64.178;15.432;2022-07-01T05:24:47;21.00;99.90
11446;DHT22;5779;64.178;15.432;2022-07-01T05:27:33;20.90;99.90
11446;DHT22;5779;64.178;15.432;2022-07-01T05:30:21;20.70;99.90
11446;DHT22;5779;64.178;15.432;2022-07-01T05:33:07;20.70;99.90
11446;DHT22;5779;64.178;15.432;2022-07-01T05:35:55;20.70;99.90
11446;DHT22;5779;64.178;15.432;2022-07-01T05:38:42;20.70;99.90
11446;DHT22;5779;64.178;15.432;2022-07-01T05:41:29;20.70;99.90
11446;DHT22;5779;64.178;15.432;2022-07-01T05:44:16;20.70;99.90
11446;DHT22;5779;64.178;15.432;2022-07-01T05:47:03;20.70;99.90
11446;DHT22;5779;64.178;15.432;2022-07-01T05:49:50;20.90;99.90
11446;DHT22;5779;64.178;15.432;2022-07-01T05:52:37;21.00;99.90
11446;DHT22;5779;64.178;15.432;2022-07-01T05:55:24;21.00;99.90
11446;DHT22;5779;64.178;15.432;2022-07-01T05:58:12;21.10;99.90
11446;DHT22;5779;64.178;15.432;2022-07-01T06:00:58;21.10;99.90
11446;DHT22;5779;64.178;15.432;2022-07-01T06:03:45;21.00;99.90
11446;DHT22;5779;64.178;15.432;2022-07-01T06:06:31;21.00;99.90
11446;DHT22;5779;64.178;15.432;2022-07-01T06:09:20;21.30;99.90
11446;DHT22;5779;64.178;15.432;2022-07-01T06:12:07;21.40;99.90
11446;DHT22;5779;64.178;15.432;2022-07-01T06:14:54;21.40;99.90
11446;DHT22;5779;64.178;15.432;2022-07-01T06:17:41;21.50;99.90
11446;DHT22;5779;64.178;15.432;2022-07-01T06:20:28;21.50;99.90
11446;DHT22;5779;64.178;15.432;2022-07-01T06:23:15;21.60;99.90
11446;DHT22;5779;64.178;15.432;2022-07-01T06:26:03;21.80;99.90
11446;DHT22;5779;64.178;15.432;2022-07-01T06:28:49;21.90;99.90
11446;DHT22;5779;64.178;15.432;2022-07-01T06:31:36;22.00;99.90
11446;DHT22;5779;64.178;15.432;2022-07-01T06:34:23;22.20;99.90
11446;DHT22;5779;64.178;15.432;2022-07-01T06:37:10;22.20;99.90
11446;DHT22;5779;64.178;15.432;2022-07-01T06:39:57;22.30;99.90
11446;DHT22;5779;64.178;15.432;2022-07-01T06:42:45;22.40;99.90
11446;DHT22;5779;64.178;15.432;2022-07-01T06:45:32;22.20;99.90
11446;DHT22;5779;64.178;15.432;2022-07-01T06:48:19;22.20;99.90
11446;DHT22;5779;64.178;15.432;2022-07-01T06:51:05;22.50;99.90
11446;DHT22;5779;64.178;15.432;2022-07-01T06:53:52;22.70;99.90
11446;DHT22;5779;64.178;15.432;2022-07-01T06:56:39;22.70;99.90
11446;DHT22;5779;64.178;15.432;2022-07-01T06:59:27;22.80;99.90
11446;DHT22;5779;64.178;15.432;2022-07-01T07:02:13;22.80;99.90
11446;DHT22;5779;64.178;15.432;2022-07-01T07:05:00;23.00;99.90
11446;DHT22;5779;64.178;15.432;2022-07-01T07:07:46;22.90;99.90
11446;DHT22;5779;64.178;15.432;2022-07-01T07:10:33;22.90;99.90
11446;DHT22;5779;64.178;15.432;2022-07-01T07:13:20;23.00;99.90
11446;DHT22;5779;64.178;15.432;2022-07-01T07:16:08;23.20;99.90
11446;DHT22;5779;64.178;15.432;2022-07-01T07:18:55;23.20;99.90
11446;DHT22;5779;64.178;15.432;2022-07-01T07:21:42;23.20;99.90
11446;DHT22;5779;64.178;15.432;2022-07-01T07:24:28;23.20;99.90
11446;DHT22;5779;64.178;15.432;2022-07-01T07:27:15;23.20;99.90
11446;DHT22;5779;64.178;15.432;2022-07-01T07:30:02;23.20;99.90
11446;DHT22;5779;64.178;15.432;2022-07-01T07:32:50;23.40;99.90
11446;DHT22;5779;64.178;15.432;2022-07-01T07:35:36;23.60;99.90
11446;DHT22;5779;64.178;15.432;2022-07-01T07:38:23;23.80;99.90
11446;DHT22;5779;64.178;15.432;2022-07-01T07:41:09;23.60;99.90
11446;DHT22;5779;64.178;15.432;2022-07-01T07:43:56;23.30;99.90
11446;DHT22;5779;64.178;15.432;2022-07-01T07:46:43;23.40;99.90
11446;DHT22;5779;64.178;15.432;2022-07-01T07:49:31;23.70;99.90
11446;DHT22;5779;64.178;15.432;2022-07-01T07:52:18;24.30;99.90
11446;DHT22;5779;64.178;15.432;2022-07-01T07:55:06;24.10;99.90
11446;DHT22;5779;64.178;15.432;2022-07-01T07:57:52;24.30;99.90
11446;DHT22;5779;64.178;15.432;2022-07-01T08:00:39;24.50;99.90
11446;DHT22;5779;64.178;15.432;2022-07-01T08:03:26;24.50;99.90
11446;DHT22;5779;64.178;15.432;2022-07-01T08:06:15;24.50;99.90
11446;DHT22;5779;64.178;15.432;2022-07-01T08:09:02;24.50;99.90
11446;DHT22;5779;64.178;15.432;2022-07-01T08:11:49;24.30;99.90
11446;DHT22;5779;64.178;15.432;2022-07-01T08:14:35;24.10;99.90
11446;DHT22;5779;64.178;15.432;2022-07-01T08:17:22;24.00;99.90
11446;DHT22;5779;64.178;15.432;2022-07-01T08:20:10;24.20;99.90
11446;DHT22;5779;64.178;15.432;2022-07-01T08:22:58;24.30;99.90
11446;DHT22;5779;64.178;15.432;2022-07-01T08:25:44;24.40;99.90
11446;DHT22;5779;64.178;15.432;2022-07-01T08:28:31;24.50;99.90
11446;DHT22;5779;64.178;15.432;2022-07-01T08:31:18;24.50;99.90
11446;DHT22;5779;64.178;15.432;2022-07-01T08:34:04;24.70;99.90
11446;DHT22;5779;64.178;15.432;2022-07-01T08:36:51;24.50;99.90
11446;DHT22;5779;64.178;15.432;2022-07-01T08:39:40;24.70;99.90
11446;DHT22;5779;64.178;15.432;2022-07-01T08:42:26;24.90;99.90
11446;DHT22;5779;64.178;15.432;2022-07-01T08:45:14;25.30;99.90
11446;DHT22;5779;64.178;15.432;2022-07-01T08:48:01;25.20;99.90
11446;DHT22;5779;64.178;15.432;2022-07-01T08:50:48;24.90;99.90
11446;DHT22;5779;64.178;15.432;2022-07-01T08:53:35;25.00;99.90
11446;DHT22;5779;64.178;15.432;2022-07-01T08:56:24;24.90;99.90
11446;DHT22;5779;64.178;15.432;2022-07-01T08:59:30;25.00;99.90
11446;DHT22;5779;64.178;15.432;2022-07-01T09:02:17;25.00;99.90
11446;DHT22;5779;64.178;15.432;2022-07-01T09:05:07;25.00;99.90
11446;DHT22;5779;64.178;15.432;2022-07-01T09:07:58;25.00;99.90
11446;DHT22;5779;64.178;15.432;2022-07-01T09:10:45;25.10;99.90
11446;DHT22;5779;64.178;15.432;2022-07-01T09:13:33;25.20;99.90
11446;DHT22;5779;64.178;15.432;2022-07-01T09:16:20;25.30;99.90
11446;DHT22;5779;64.178;15.432;2022-07-01T09:19:06;25.30;99.90
11446;DHT22;5779;64.178;15.432;2022-07-01T09:21:55;25.30;99.90
11446;DHT22;5779;64.178;15.432;2022-07-01T09:24:42;25.50;99.90
11446;DHT22;5779;64.178;15.432;2022-07-01T09:27:29;25.50;99.90
11446;DHT22;5779;64.178;15.432;2022-07-01T09:30:17;25.40;99.90
11446;DHT22;5779;64.178;15.432;2022-07-01T09:33:14;25.50;99.90
11446;DHT22;5779;64.178;15.432;2022-07-01T09:36:01;25.50;99.90
11446;DHT22;5779;64.178;15.432;2022-07-01T09:38:48;25.40;99.90
11446;DHT22;5779;64.178;15.432;2022-07-01T09:41:36;25.50;99.90
11446;DHT22;5779;64.178;15.432;2022-07-01T09:44:22;25.20;99.90
11446;DHT22;5779;64.178;15.432;2022-07-01T09:47:10;25.40;99.90
11446;DHT22;5779;64.178;15.432;2022-07-01T09:49:58;25.30;99.90
11446;DHT22;5779;64.178;15.432;2022-07-01T09:52:45;25.40;99.90
11446;DHT22;5779;64.178;15.432;2022-07-01T09:55:34;25.70;99.90
11446;DHT22;5779;64.178;15.432;2022-07-01T09:58:20;25.30;99.90
11446;DHT22;5779;64.178;15.432;2022-07-01T10:01:08;25.20;99.90
11446;DHT22;5779;64.178;15.432;2022-07-01T10:03:57;25.40;99.90
11446;DHT22;5779;64.178;15.432;2022-07-01T10:06:58;25.70;99.90
11446;DHT22;5779;64.178;15.432;2022-07-01T10:10:02;25.90;99.90
11446;DHT22;5779;64.178;15.432;2022-07-01T10:12:52;25.50;99.90
11446;DHT22;5779;64.178;15.432;2022-07-01T10:15:40;25.50;99.90
11446;DHT22;5779;64.178;15.432;2022-07-01T10:18:28;25.30;99.90
11446;DHT22;5779;64.178;15.432;2022-07-01T10:21:28;25.30;99.90
11446;DHT22;5779;64.178;15.432;2022-07-01T10:24:16;25.30;99.90
11446;DHT22;5779;64.178;15.432;2022-07-01T10:27:19;25.30;99.90
11446;DHT22;5779;64.178;15.432;2022-07-01T10:30:14;25.30;99.90
11446;DHT22;5779;64.178;15.432;2022-07-01T10:33:02;25.10;99.90
11446;DHT22;5779;64.178;15.432;2022-07-01T10:35:48;25.30;99.90
11446;DHT22;5779;64.178;15.432;2022-07-01T10:39:12;25.30;99.90
11446;DHT22;5779;64.178;15.432;2022-07-01T10:42:01;25.40;99.90
11446;DHT22;5779;64.178;15.432;2022-07-01T10:45:07;25.40;99.90
11446;DHT22;5779;64.178;15.432;2022-07-01T10:48:18;25.90;99.90
11446;DHT22;5779;64.178;15.432;2022-07-01T10:51:05;26.10;99.90
11446;DHT22;5779;64.178;15.432;2022-07-01T10:53:53;26.30;99.90
11446;DHT22;5779;64.178;15.432;2022-07-01T10:56:41;26.40;99.90
11446;DHT22;5779;64.178;15.432;2022-07-01T10:59:28;26.70;99.90
11446;DHT22;5779;64.178;15.432;2022-07-01T11:02:16;26.60;99.90
11446;DHT22;5779;64.178;15.432;2022-07-01T11:05:07;26.60;99.90
11446;DHT22;5779;64.178;15.432;2022-07-01T11:07:55;26.30;99.90
11446;DHT22;5779;64.178;15.432;2022-07-01T11:10:43;26.00;99.90
11446;DHT22;5779;64.178;15.432;2022-07-01T11:13:31;25.80;99.90
11446;DHT22;5779;64.178;15.432;2022-07-01T11:16:18;25.70;99.90
11446;DHT22;5779;64.178;15.432;2022-07-01T11:19:06;26.10;99.90
11446;DHT22;5779;64.178;15.432;2022-07-01T11:21:54;26.30;99.90
11446;DHT22;5779;64.178;15.432;2022-07-01T11:24:41;26.60;99.90
11446;DHT22;5779;64.178;15.432;2022-07-01T11:27:30;26.50;99.90
11446;DHT22;5779;64.178;15.432;2022-07-01T11:30:18;26.50;99.90
11446;DHT22;5779;64.178;15.432;2022-07-01T11:33:05;26.40;99.90
11446;DHT22;5779;64.178;15.432;2022-07-01T11:35:54;26.50;99.90
11446;DHT22;5779;64.178;15.432;2022-07-01T11:38:58;26.10;99.90
11446;DHT22;5779;64.178;15.432;2022-07-01T11:42:05;26.70;99.90
11446;DHT22;5779;64.178;15.432;2022-07-01T11:44:54;26.60;99.90
11446;DHT22;5779;64.178;15.432;2022-07-01T11:47:40;26.50;99.90
11446;DHT22;5779;64.178;15.432;2022-07-01T11:50:27;26.50;99.90
11446;DHT22;5779;64.178;15.432;2022-07-01T11:53:13;26.10;99.90
11446;DHT22;5779;64.178;15.432;2022-07-01T11:56:01;25.80;99.90
11446;DHT22;5779;64.178;15.432;2022-07-01T11:58:49;25.80;99.90
11446;DHT22;5779;64.178;15.432;2022-07-01T12:01:37;25.90;99.90
11446;DHT22;5779;64.178;15.432;2022-07-01T12:04:24;26.10;99.90
11446;DHT22;5779;64.178;15.432;2022-07-01T12:07:12;26.10;99.90
11446;DHT22;5779;64.178;15.432;2022-07-01T12:09:59;26.20;99.90
11446;DHT22;5779;64.178;15.432;2022-07-01T12:12:46;26.30;99.90
11446;DHT22;5779;64.178;15.432;2022-07-01T12:15:32;26.60;99.90
11446;DHT22;5779;64.178;15.432;2022-07-01T12:18:21;27.00;99.90
11446;DHT22;5779;64.178;15.432;2022-07-01T12:21:07;27.50;99.90
11446;DHT22;5779;64.178;15.432;2022-07-01T12:24:05;27.60;99.90
11446;DHT22;5779;64.178;15.432;2022-07-01T12:27:01;27.60;99.90
11446;DHT22;5779;64.178;15.432;2022-07-01T12:29:51;27.30;99.90
11446;DHT22;5779;64.178;15.432;2022-07-01T12:32:38;27.30;99.90
11446;DHT22;5779;64.178;15.432;2022-07-01T12:35:28;26.80;99.90
11446;DHT22;5779;64.178;15.432;2022-07-01T12:38:22;26.70;99.90
11446;DHT22;5779;64.178;15.432;2022-07-01T12:41:26;26.50;99.90
11446;DHT22;5779;64.178;15.432;2022-07-01T12:44:21;26.50;99.90
11446;DHT22;5779;64.178;15.432;2022-07-01T12:47:17;26.50;99.90
11446;DHT22;5779;64.178;15.432;2022-07-01T12:50:15;26.70;99.90
11446;DHT22;5779;64.178;15.432;2022-07-01T12:53:05;26.60;99.90
11446;DHT22;5779;64.178;15.432;2022-07-01T12:55:54;26.50;99.90
11446;DHT22;5779;64.178;15.432;2022-07-01T12:58:41;26.50;99.90
11446;DHT22;5779;64.178;15.432;2022-07-01T13:01:28;26.60;99.90
11446;DHT22;5779;64.178;15.432;2022-07-01T13:04:23;26.80;99.90
11446;DHT22;5779;64.178;15.432;2022-07-01T13:07:10;26.70;99.90
11446;DHT22;5779;64.178;15.432;2022-07-01T13:09:58;26.70;99.90
11446;DHT22;5779;64.178;15.432;2022-07-01T13:12:46;26.60;99.90
11446;DHT22;5779;64.178;15.432;2022-07-01T13:15:32;26.70;99.90
11446;DHT22;5779;64.178;15.432;2022-07-01T13:18:20;26.60;99.90
11446;DHT22;5779;64.178;15.432;2022-07-01T13:21:06;26.70;99.90
11446;DHT22;5779;64.178;15.432;2022-07-01T13:23:53;26.70;99.90
11446;DHT22;5779;64.178;15.432;2022-07-01T13:26:41;26.70;99.90
11446;DHT22;5779;64.178;15.432;2022-07-01T13:29:28;26.90;99.90
11446;DHT22;5779;64.178;15.432;2022-07-01T13:32:14;26.90;99.90
11446;DHT22;5779;64.178;15.432;2022-07-01T13:35:01;26.90;99.90
11446;DHT22;5779;64.178;15.432;2022-07-01T13:37:49;26.70;99.90
11446;DHT22;5779;64.178;15.432;2022-07-01T13:40:35;26.70;99.90
11446;DHT22;5779;64.178;15.432;2022-07-01T13:43:23;26.80;99.90
11446;DHT22;5779;64.178;15.432;2022-07-01T13:46:10;26.90;99.90
11446;DHT22;5779;64.178;15.432;2022-07-01T13:48:57;26.90;99.90
11446;DHT22;5779;64.178;15.432;2022-07-01T13:51:44;26.70;99.90
11446;DHT22;5779;64.178;15.432;2022-07-01T13:54:31;26.60;99.90
11446;DHT22;5779;64.178;15.432;2022-07-01T13:57:17;26.50;99.90
11446;DHT22;5779;64.178;15.432;2022-07-01T14:00:07;26.50;99.90
11446;DHT22;5779;64.178;15.432;2022-07-01T14:02:54;26.60;99.90
11446;DHT22;5779;64.178;15.432;2022-07-01T14:05:41;26.60;99.90
11446;DHT22;5779;64.178;15.432;2022-07-01T14:08:28;26.30;99.90
11446;DHT22;5779;64.178;15.432;2022-07-01T14:11:15;26.20;99.90
11446;DHT22;5779;64.178;15.432;2022-07-01T14:14:01;25.90;99.90
11446;DHT22;5779;64.178;15.432;2022-07-01T14:16:49;25.90;99.90
11446;DHT22;5779;64.178;15.432;2022-07-01T14:19:36;26.00;99.90
11446;DHT22;5779;64.178;15.432;2022-07-01T14:22:23;25.90;99.90
11446;DHT22;5779;64.178;15.432;2022-07-01T14:25:10;25.90;99.90
11446;DHT22;5779;64.178;15.432;2022-07-01T14:27:57;25.80;99.90
11446;DHT22;5779;64.178;15.432;2022-07-01T14:30:44;26.00;99.90
11446;DHT22;5779;64.178;15.432;2022-07-01T14:33:33;26.00;99.90
11446;DHT22;5779;64.178;15.432;2022-07-01T14:36:19;25.90;99.90
11446;DHT22;5779;64.178;15.432;2022-07-01T14:39:06;26.00;99.90
11446;DHT22;5779;64.178;15.432;2022-07-01T14:41:53;26.10;99.90
11446;DHT22;5779;64.178;15.432;2022-07-01T14:44:40;26.10;99.90
11446;DHT22;5779;64.178;15.432;2022-07-01T14:47:27;26.00;99.90
11446;DHT22;5779;64.178;15.432;2022-07-01T14:50:16;25.90;99.90
11446;DHT22;5779;64.178;15.432;2022-07-01T14:53:03;26.00;99.90
11446;DHT22;5779;64.178;15.432;2022-07-01T14:55:49;25.80;99.90
11446;DHT22;5779;64.178;15.432;2022-07-01T14:58:36;26.00;99.90
11446;DHT22;5779;64.178;15.432;2022-07-01T15:01:23;25.90;99.90
11446;DHT22;5779;64.178;15.432;2022-07-01T15:04:09;25.70;99.90
11446;DHT22;5779;64.178;15.432;2022-07-01T15:06:58;25.60;99.90
11446;DHT22;5779;64.178;15.432;2022-07-01T15:09:45;25.60;99.90
11446;DHT22;5779;64.178;15.432;2022-07-01T15:12:32;25.20;99.90
11446;DHT22;5779;64.178;15.432;2022-07-01T15:15:19;24.90;99.90
11446;DHT22;5779;64.178;15.432;2022-07-01T15:18:06;24.90;99.90
11446;DHT22;5779;64.178;15.432;2022-07-01T15:20:53;24.90;99.90
11446;DHT22;5779;64.178;15.432;2022-07-01T15:23:41;24.90;99.90
11446;DHT22;5779;64.178;15.432;2022-07-01T15:26:27;25.00;99.90
11446;DHT22;5779;64.178;15.432;2022-07-01T15:29:15;25.20;99.90
11446;DHT22;5779;64.178;15.432;2022-07-01T15:32:02;25.00;99.90
11446;DHT22;5779;64.178;15.432;2022-07-01T15:34:49;24.70;99.90
11446;DHT22;5779;64.178;15.432;2022-07-01T15:37:36;24.70;99.90
11446;DHT22;5779;64.178;15.432;2022-07-01T15:40:24;24.80;99.90
11446;DHT22;5779;64.178;15.432;2022-07-01T15:43:13;24.90;99.90
11446;DHT22;5779;64.178;15.432;2022-07-01T15:46:00;25.00;99.90
11446;DHT22;5779;64.178;15.432;2022-07-01T15:48:47;25.00;99.90
11446;DHT22;5779;64.178;15.432;2022-07-01T15:51:36;25.00;99.90
11446;DHT22;5779;64.178;15.432;2022-07-01T15:54:22;25.10;99.90
11446;DHT22;5779;64.178;15.432;2022-07-01T15:57:11;25.10;99.90
11446;DHT22;5779;64.178;15.432;2022-07-01T15:59:57;25.20;99.90
11446;DHT22;5779;64.178;15.432;2022-07-01T16:02:44;25.00;99.90
11446;DHT22;5779;64.178;15.432;2022-07-01T16:05:31;25.00;99.90
11446;DHT22;5779;64.178;15.432;2022-07-01T16:08:23;24.80;99.90
11446;DHT22;5779;64.178;15.432;2022-07-01T16:11:11;24.80;99.90
11446;DHT22;5779;64.178;15.432;2022-07-01T16:13:59;24.70;99.90
11446;DHT22;5779;64.178;15.432;2022-07-01T16:16:47;24.60;99.90
11446;DHT22;5779;64.178;15.432;2022-07-01T16:19:35;24.50;99.90
11446;DHT22;5779;64.178;15.432;2022-07-01T16:22:24;24.40;99.90
11446;DHT22;5779;64.178;15.432;2022-07-01T16:25:11;24.30;99.90
11446;DHT22;5779;64.178;15.432;2022-07-01T16:28:00;24.20;99.90
11446;DHT22;5779;64.178;15.432;2022-07-01T16:30:50;24.20;99.90
11446;DHT22;5779;64.178;15.432;2022-07-01T16:33:37;24.10;99.90
11446;DHT22;5779;64.178;15.432;2022-07-01T16:36:28;24.20;99.90
11446;DHT22;5779;64.178;15.432;2022-07-01T16:39:16;24.10;99.90
11446;DHT22;5779;64.178;15.432;2022-07-01T16:42:07;24.00;99.90
11446;DHT22;5779;64.178;15.432;2022-07-01T16:44:58;24.10;99.90
11446;DHT22;5779;64.178;15.432;2022-07-01T16:47:48;24.10;99.90
11446;DHT22;5779;64.178;15.432;2022-07-01T16:50:40;24.10;99.90
11446;DHT22;5779;64.178;15.432;2022-07-01T16:53:33;24.10;99.90
11446;DHT22;5779;64.178;15.432;2022-07-01T16:56:25;24.20;99.90
11446;DHT22;5779;64.178;15.432;2022-07-01T16:59:13;24.10;99.90
11446;DHT22;5779;64.178;15.432;2022-07-01T17:02:03;24.10;99.90
11446;DHT22;5779;64.178;15.432;2022-07-01T17:04:52;24.00;99.90
11446;DHT22;5779;64.178;15.432;2022-07-01T17:07:41;24.00;99.90
11446;DHT22;5779;64.178;15.432;2022-07-01T17:10:29;24.00;99.90
11446;DHT22;5779;64.178;15.432;2022-07-01T17:13:17;23.90;99.90
11446;DHT22;5779;64.178;15.432;2022-07-01T17:16:04;23.80;99.90
11446;DHT22;5779;64.178;15.432;2022-07-01T17:18:51;23.70;99.90
11446;DHT22;5779;64.178;15.432;2022-07-01T17:21:41;23.60;99.90
11446;DHT22;5779;64.178;15.432;2022-07-01T17:24:28;23.60;99.90
11446;DHT22;5779;64.178;15.432;2022-07-01T17:27:22;23.60;99.90
11446;DHT22;5779;64.178;15.432;2022-07-01T17:30:11;23.50;99.90
11446;DHT22;5779;64.178;15.432;2022-07-01T17:32:58;23.40;99.90
11446;DHT22;5779;64.178;15.432;2022-07-01T17:35:50;23.30;99.90
11446;DHT22;5779;64.178;15.432;2022-07-01T17:38:44;23.30;99.90
11446;DHT22;5779;64.178;15.432;2022-07-01T17:41:34;23.20;99.90